Time;durP1;ratioP1;P1;durP2;ratioP2;P2;SDS_P1;SDS_P2;PMS_P1;PMS_P2;Temp;Humidity;BMP_temperature;BMP_pressure;BME280_temperature;BME280_humidity;BME280_pressure;Samples;Min_cycle;Max_cycle;Signal;HPM_P1;HPM_P2
2022/01/13 00:02:46;;;;;;;30.63;11.67;;;;;;;1.99;91.37;103313.72;6065385;28;20049;-74
2022/01/13 00:05:41;;;;;;;36.47;11.60;;;;;;;1.90;91.64;103313.91;6070793;28;20100;-73
2022/01/13 00:08:36;;;;;;;37.33;11.20;;;;;;;1.86;91.93;103317.47;6072764;28;20439;-73
2022/01/13 00:11:32;;;;;;;33.27;11.50;;;;;;;1.79;91.96;103307.09;6072647;28;20396;-73
2022/01/13 00:14:41;;;;;;;35.17;12.63;;;;;;;1.83;92.08;103305.28;6068142;28;20068;-73
2022/01/13 00:17:58;;;;;;;30.38;11.38;;;;;;;1.75;92.20;103304.56;6073231;28;20071;-73
2022/01/13 00:23:52;;;;;;;29.60;10.37;;;;;;;1.57;92.04;103316.22;6073807;28;20436;-74
2022/01/13 00:26:48;;;;;;;28.55;11.18;;;;;;;1.54;92.74;103313.63;6072687;28;20041;-73
2022/01/13 00:29:45;;;;;;;34.20;11.43;;;;;;;1.51;92.68;103318.91;6072776;28;20052;-73
2022/01/13 00:32:41;;;;;;;36.75;11.88;;;;;;;1.45;92.49;103315.50;6072807;28;20044;-73
2022/01/13 00:35:37;;;;;;;39.30;11.60;;;;;;;1.38;93.04;103304.31;6071942;28;20103;-74
2022/01/13 00:38:32;;;;;;;33.72;11.15;;;;;;;1.40;93.00;103315.59;6072455;28;20025;-73
2022/01/13 00:41:29;;;;;;;33.63;11.40;;;;;;;1.28;92.84;103305.31;6072710;28;20071;-73
2022/01/13 00:44:24;;;;;;;32.28;10.88;;;;;;;1.27;93.27;103307.97;6072874;28;20080;-72
2022/01/13 00:47:20;;;;;;;39.67;11.97;;;;;;;1.27;92.99;103321.03;6071320;28;20033;-73
2022/01/13 00:50:18;;;;;;;38.42;11.57;;;;;;;1.18;93.41;103324.63;6066230;28;20033;-74
2022/01/13 00:53:13;;;;;;;41.88;12.43;;;;;;;1.15;93.14;103317.72;6072658;28;20106;-73
2022/01/13 00:56:09;;;;;;;39.67;11.13;;;;;;;1.19;93.98;103308.97;6072099;28;20038;-73
2022/01/13 00:59:09;;;;;;;36.87;11.70;;;;;;;1.28;93.49;103323.59;6065579;28;20526;-73
2022/01/13 01:02:04;;;;;;;34.38;11.88;;;;;;;1.31;93.45;103313.13;6071818;28;20385;-73
2022/01/13 01:04:59;;;;;;;27.97;10.20;;;;;;;1.43;93.66;103304.22;6072215;28;20052;-73
2022/01/13 01:07:55;;;;;;;29.90;11.20;;;;;;;1.43;93.72;103309.47;6071923;28;20037;-74
2022/01/13 01:10:53;;;;;;;29.83;10.63;;;;;;;1.47;93.80;103304.16;6068352;28;20026;-73
2022/01/13 01:13:50;;;;;;;30.73;11.75;;;;;;;1.50;93.30;103308.47;6072415;28;20040;-73
2022/01/13 01:16:45;;;;;;;39.38;12.38;;;;;;;1.53;93.25;103314.50;6064346;28;20061;-73
2022/01/13 01:19:47;;;;;;;33.78;11.82;;;;;;;1.54;92.81;103316.25;6073014;28;20040;-75
2022/01/13 01:23:12;;;;;;;30.23;10.95;;;;;;;1.56;92.64;103313.59;6069447;28;20152;-74
2022/01/13 01:26:19;;;;;;;30.35;11.48;;;;;;;1.56;92.92;103308.38;6073392;28;20053;-74
2022/01/13 01:29:40;;;;;;;32.42;11.20;;;;;;;1.62;92.68;103322.22;6074164;28;20038;-74
2022/01/13 01:32:37;;;;;;;30.15;10.57;;;;;;;1.69;92.73;103325.59;6063768;28;20095;-73
2022/01/13 01:35:33;;;;;;;31.05;11.75;;;;;;;1.70;92.71;103336.03;6073121;28;20045;-74
2022/01/13 01:38:28;;;;;;;26.95;10.32;;;;;;;1.80;92.23;103340.22;6076925;28;20060;-74
2022/01/13 01:41:23;;;;;;;38.00;11.10;;;;;;;1.77;92.22;103336.78;6072251;28;20044;-74
2022/01/13 01:44:26;;;;;;;41.77;11.87;;;;;;;1.84;91.92;103335.81;6074688;28;20327;-73
2022/01/13 01:47:24;;;;;;;38.42;13.40;;;;;;;1.82;91.95;103331.50;6076240;28;20160;-74
2022/01/13 01:50:21;;;;;;;36.33;12.27;;;;;;;1.88;91.78;103329.63;6075621;28;20111;-73
2022/01/13 01:53:18;;;;;;;39.67;14.60;;;;;;;1.90;92.00;103327.88;6069957;28;20041;-73
2022/01/13 01:56:13;;;;;;;48.75;14.60;;;;;;;1.89;92.37;103326.13;6069011;28;20037;-74
2022/01/13 01:59:11;;;;;;;54.97;15.97;;;;;;;1.89;92.09;103315.66;6076471;28;20045;-74
2022/01/13 02:02:08;;;;;;;44.30;15.65;;;;;;;1.98;92.32;103323.34;6076492;28;20481;-73
2022/01/13 02:05:03;;;;;;;46.97;13.52;;;;;;;1.99;92.53;103319.84;6065134;28;20052;-73
2022/01/13 02:07:59;;;;;;;52.00;16.65;;;;;;;1.95;92.24;103318.19;6076253;28;20057;-73
2022/01/13 02:10:54;;;;;;;53.38;16.80;;;;;;;1.94;91.93;103316.44;6063153;28;20038;-73
2022/01/13 02:13:53;;;;;;;50.53;16.13;;;;;;;1.95;92.48;103320.78;6075551;28;20072;-73
2022/01/13 02:16:51;;;;;;;51.08;15.55;;;;;;;1.91;92.44;103315.63;6076016;28;20108;-74
2022/01/13 02:19:46;;;;;;;57.47;16.85;;;;;;;1.92;92.75;103299.91;6074164;28;20033;-75
2022/01/13 02:22:41;;;;;;;59.07;19.27;;;;;;;1.85;92.47;103295.66;6075690;28;20049;-74
2022/01/13 02:25:37;;;;;;;57.80;18.60;;;;;;;1.85;92.44;103279.97;6075820;28;20276;-73
2022/01/13 02:28:32;;;;;;;51.70;15.67;;;;;;;1.82;92.72;103287.91;6075009;28;20472;-74
2022/01/13 02:31:28;;;;;;;65.25;19.88;;;;;;;1.79;92.84;103274.88;6075284;28;20041;-74
2022/01/13 02:34:23;;;;;;;74.40;21.23;;;;;;;1.82;92.64;103290.50;6075831;28;20494;-74
2022/01/13 02:37:18;;;;;;;69.73;20.40;;;;;;;1.76;92.92;103291.47;6069133;28;20060;-74
2022/01/13 02:40:13;;;;;;;62.97;18.83;;;;;;;1.74;93.29;103276.69;6067976;28;20388;-74
2022/01/13 02:43:09;;;;;;;65.63;19.17;;;;;;;1.77;93.29;103274.88;6075440;28;20041;-73
2022/01/13 02:49:31;;;;;;;70.50;20.20;;;;;;;1.73;93.53;103254.03;6075792;28;20040;-73
2022/01/13 02:52:26;;;;;;;73.50;21.57;;;;;;;1.75;93.44;103255.75;6073464;28;20037;-74
2022/01/13 02:55:23;;;;;;;77.60;20.90;;;;;;;1.73;93.70;103254.03;6074717;28;20032;-75
2022/01/13 02:58:18;;;;;;;66.80;19.85;;;;;;;1.70;93.55;103244.50;6075677;28;20076;-75
2022/01/13 03:01:14;;;;;;;62.13;19.03;;;;;;;1.72;93.74;103242.72;6073649;28;20046;-74
2022/01/13 03:04:09;;;;;;;58.10;18.45;;;;;;;1.74;93.61;103250.53;6075217;28;20075;-74
2022/01/13 03:07:05;;;;;;;73.03;20.58;;;;;;;1.78;93.77;103254.81;6073932;28;20113;-75
2022/01/13 03:10:01;;;;;;;60.97;19.00;;;;;;;1.76;93.64;103254.88;6072481;28;20033;-75
2022/01/13 03:12:58;;;;;;;63.47;19.88;;;;;;;1.74;93.65;103248.78;6072885;28;20036;-74
2022/01/13 03:15:53;;;;;;;68.47;19.23;;;;;;;1.77;93.14;103242.63;6073261;28;20045;-75
2022/01/13 03:18:48;;;;;;;62.93;17.83;;;;;;;1.77;93.48;103232.16;6074319;28;20441;-75
2022/01/13 03:21:44;;;;;;;59.37;17.73;;;;;;;1.78;93.87;103220.81;6069400;28;20037;-75
2022/01/13 03:24:39;;;;;;;70.50;18.80;;;;;;;1.80;93.80;103221.66;6075072;28;20041;-74
2022/01/13 03:27:35;;;;;;;63.80;20.48;;;;;;;1.76;93.67;103220.00;6073848;28;20040;-74
2022/01/13 03:30:31;;;;;;;62.50;16.65;;;;;;;1.82;94.04;103238.19;6073502;28;20029;-75
2022/01/13 03:33:27;;;;;;;64.43;19.83;;;;;;;1.80;93.88;103232.09;6067894;28;20030;-74
2022/01/13 03:36:22;;;;;;;69.25;19.77;;;;;;;1.80;93.96;103226.88;6073572;28;20052;-75
2022/01/13 03:39:18;;;;;;;81.13;20.40;;;;;;;1.82;93.91;103222.50;6074733;28;20045;-75
2022/01/13 03:42:13;;;;;;;61.63;19.53;;;;;;;1.84;93.45;103223.34;6073593;28;20120;-75
2022/01/13 03:45:08;;;;;;;64.37;18.30;;;;;;;1.87;93.17;103220.66;6074502;28;20040;-74
2022/01/13 03:48:06;;;;;;;68.57;19.00;;;;;;;1.89;93.65;103229.34;6073625;28;20400;-75
2022/01/13 03:51:01;;;;;;;57.42;16.65;;;;;;;1.86;93.90;103218.94;6073396;28;20033;-75
2022/01/13 03:54:31;;;;;;;64.85;19.15;;;;;;;1.86;93.64;103218.94;6071582;28;20076;-75
2022/01/13 03:57:50;;;;;;;59.80;16.63;;;;;;;1.86;93.38;103208.47;6074179;28;20018;-75
2022/01/13 04:01:16;;;;;;;61.65;18.48;;;;;;;1.87;93.41;103219.78;6071754;28;20037;-74
2022/01/13 04:04:12;;;;;;;64.68;18.45;;;;;;;1.80;93.35;103213.81;6069250;28;20112;-75
2022/01/13 04:07:14;;;;;;;60.27;18.77;;;;;;;1.84;92.76;103204.16;6074499;28;20030;-74
2022/01/13 04:10:29;;;;;;;64.05;19.75;;;;;;;1.75;93.26;103211.28;6072397;28;20053;-74
2022/01/13 04:16:38;;;;;;;59.55;18.20;;;;;;;1.79;93.34;103206.88;6073215;28;20472;-74
2022/01/13 04:19:33;;;;;;;67.70;18.07;;;;;;;1.77;93.40;103203.41;6073938;28;20041;-73
2022/01/13 04:22:29;;;;;;;74.10;19.85;;;;;;;1.73;93.29;103201.75;6060304;28;20033;-73
2022/01/13 04:25:24;;;;;;;59.23;21.17;;;;;;;1.78;92.71;103199.91;6072893;28;20486;-74
2022/01/13 04:28:26;;;;;;;65.10;18.90;;;;;;;1.75;92.72;103185.13;6069156;28;20527;-72
2022/01/13 04:31:22;;;;;;;60.92;18.60;;;;;;;1.77;93.02;103183.34;6072880;28;20488;-74
2022/01/13 04:34:17;;;;;;;61.03;17.50;;;;;;;1.80;92.90;103190.25;6072159;28;20065;-73
2022/01/13 04:37:13;;;;;;;61.25;18.30;;;;;;;1.75;92.87;103187.75;6073679;28;20033;-72
2022/01/13 04:40:09;;;;;;;65.80;18.67;;;;;;;1.75;93.33;103198.22;6072749;28;21405;-73
2022/01/13 04:43:04;;;;;;;61.95;17.77;;;;;;;1.77;93.17;103208.63;6073267;28;20033;-73
2022/01/13 04:46:00;;;;;;;64.53;19.67;;;;;;;1.73;93.36;103192.16;6069695;28;20370;-73
2022/01/13 04:48:55;;;;;;;61.08;17.52;;;;;;;1.78;93.31;103186.81;6072582;28;20065;-73
2022/01/13 04:51:50;;;;;;;61.37;17.87;;;;;;;1.76;93.00;103199.94;6071179;28;20034;-73
2022/01/13 04:54:46;;;;;;;70.70;19.45;;;;;;;1.75;92.78;103205.19;6068812;28;20469;-74
2022/01/13 04:57:41;;;;;;;58.57;17.47;;;;;;;1.76;93.42;103206.91;6057030;28;20123;-73
2022/01/13 05:00:36;;;;;;;67.70;19.77;;;;;;;1.78;93.28;103195.53;6070251;28;20041;-73
2022/01/13 05:03:32;;;;;;;63.57;18.47;;;;;;;1.74;93.29;103198.22;6074951;28;20053;-73
2022/01/13 05:06:27;;;;;;;67.50;19.53;;;;;;;1.75;93.26;103194.72;6071031;28;20403;-72
2022/01/13 05:09:22;;;;;;;65.47;19.15;;;;;;;1.73;93.44;103181.69;6066947;28;20041;-75
2022/01/13 05:12:18;;;;;;;72.20;18.33;;;;;;;1.78;93.42;103190.31;6067653;28;20591;-74
2022/01/13 05:15:22;;;;;;;65.97;17.33;;;;;;;1.77;93.39;103193.81;6077732;28;20065;-74
2022/01/13 05:18:28;;;;;;;70.63;16.63;;;;;;;1.87;93.55;103191.88;6077606;28;20268;-73
2022/01/13 05:21:37;;;;;;;67.57;17.95;;;;;;;1.86;93.78;103197.13;6070234;28;20099;-75
2022/01/13 05:24:32;;;;;;;74.18;19.48;;;;;;;1.93;94.36;103196.97;6070832;28;20037;-74
2022/01/13 05:27:27;;;;;;;59.50;17.17;;;;;;;1.94;94.05;103203.94;6073104;28;20041;-74
2022/01/13 05:30:23;;;;;;;63.07;16.97;;;;;;;1.95;94.19;103208.28;6072260;28;20059;-74
2022/01/13 05:33:18;;;;;;;59.27;17.97;;;;;;;1.94;94.17;103206.56;6077820;28;20033;-73
2022/01/13 05:36:13;;;;;;;68.43;19.90;;;;;;;1.97;93.99;103203.88;6067267;28;20029;-74
2022/01/13 05:39:10;;;;;;;64.43;18.95;;;;;;;1.94;94.24;103206.56;6077060;28;20029;-75
2022/01/13 05:42:05;;;;;;;66.85;19.60;;;;;;;1.96;93.87;103204.78;6076041;28;20116;-73
2022/01/13 05:45:02;;;;;;;54.88;18.40;;;;;;;1.95;94.25;103218.75;6077616;28;20029;-73
2022/01/13 05:47:58;;;;;;;69.15;17.98;;;;;;;2.00;94.09;103222.16;6075147;28;20116;-73
2022/01/13 05:50:54;;;;;;;71.53;17.50;;;;;;;2.02;94.23;103215.13;6076100;28;20466;-74
2022/01/13 05:53:49;;;;;;;67.30;18.70;;;;;;;1.98;94.33;103208.25;6077129;28;20436;-73
2022/01/13 05:56:45;;;;;;;59.67;18.58;;;;;;;2.05;93.94;103209.84;6073862;28;20036;-74
2022/01/13 05:59:40;;;;;;;66.87;18.27;;;;;;;2.07;93.73;103205.41;6076684;28;20033;-74
2022/01/13 06:02:35;;;;;;;56.17;17.47;;;;;;;2.08;93.90;103208.91;6076450;28;20025;-74
2022/01/13 06:05:31;;;;;;;72.27;18.80;;;;;;;2.08;93.96;103194.06;6071457;28;20456;-74
2022/01/13 06:08:27;;;;;;;72.13;17.55;;;;;;;2.10;93.98;103192.28;6077136;28;20029;-74
2022/01/13 06:11:23;;;;;;;65.90;18.47;;;;;;;2.07;93.79;103189.72;6074259;28;20040;-73
2022/01/13 06:14:19;;;;;;;55.15;16.90;;;;;;;2.15;94.57;103185.19;6075985;28;20032;-73
2022/01/13 06:17:14;;;;;;;64.03;15.63;;;;;;;2.13;94.06;103183.50;6074675;28;20033;-73
2022/01/13 06:20:11;;;;;;;58.80;16.60;;;;;;;2.12;94.28;103180.03;6066999;28;20304;-72
2022/01/13 06:23:08;;;;;;;61.53;15.93;;;;;;;2.23;94.28;103180.66;6072791;28;20037;-72
2022/01/13 06:26:06;;;;;;;68.82;16.92;;;;;;;2.25;94.18;103184.13;6075230;28;20443;-73
2022/01/13 06:29:02;;;;;;;68.47;17.75;;;;;;;2.22;94.23;103176.34;6074885;28;20116;-73
2022/01/13 06:31:57;;;;;;;54.20;15.98;;;;;;;2.26;94.49;103180.59;6075612;28;20037;-73
2022/01/13 06:34:52;;;;;;;62.17;15.80;;;;;;;2.27;93.68;103184.09;6075999;28;20037;-73
2022/01/13 06:37:48;;;;;;;63.58;16.55;;;;;;;2.27;93.77;103179.72;6075590;28;20375;-73
2022/01/13 06:40:44;;;;;;;73.13;18.87;;;;;;;2.24;93.58;103179.78;6075346;28;20033;-73
2022/01/13 06:43:39;;;;;;;65.65;16.05;;;;;;;2.22;94.36;103176.34;6075442;28;20100;-73
2022/01/13 06:46:34;;;;;;;63.83;17.43;;;;;;;2.20;94.04;103185.97;6076077;28;20038;-72
2022/01/13 06:49:29;;;;;;;65.27;16.53;;;;;;;2.20;94.27;103175.50;6074272;28;20037;-73
2022/01/13 06:52:25;;;;;;;63.08;16.98;;;;;;;2.23;94.22;103179.78;6051700;28;20041;-72
2022/01/13 06:55:20;;;;;;;59.50;16.17;;;;;;;2.28;94.49;103181.41;6074643;28;20041;-72
2022/01/13 06:58:16;;;;;;;63.33;18.37;;;;;;;2.19;94.32;103186.88;6075989;28;20053;-73
2022/01/13 07:01:11;;;;;;;64.33;17.13;;;;;;;2.23;94.24;103191.13;6069820;28;20071;-72
2022/01/13 07:04:09;;;;;;;74.23;18.27;;;;;;;2.25;94.02;103188.50;6065661;28;20359;-73
2022/01/13 07:07:04;;;;;;;65.80;17.13;;;;;;;2.26;94.67;103191.06;6071851;28;20476;-73
2022/01/13 07:10:00;;;;;;;69.18;18.27;;;;;;;2.28;94.24;103191.91;6074296;28;20032;-75
2022/01/13 07:12:55;;;;;;;62.83;17.57;;;;;;;2.23;93.75;103191.13;6075457;28;20460;-74
2022/01/13 07:15:50;;;;;;;55.10;16.63;;;;;;;2.25;94.26;103193.72;6069150;28;20287;-74
2022/01/13 07:18:46;;;;;;;73.77;18.57;;;;;;;2.26;94.42;103193.69;6061263;28;20049;-74
2022/01/13 07:21:43;;;;;;;75.37;18.77;;;;;;;2.22;94.67;103207.75;6073994;28;20444;-74
2022/01/13 07:24:38;;;;;;;61.97;17.50;;;;;;;2.26;94.23;103205.91;6067827;28;20069;-74
2022/01/13 07:27:33;;;;;;;69.47;17.93;;;;;;;2.20;93.55;103195.59;6060545;28;20496;-75
2022/01/13 07:30:29;;;;;;;69.40;19.65;;;;;;;2.16;94.84;103201.75;6073292;28;20032;-74
2022/01/13 07:33:24;;;;;;;67.83;18.33;;;;;;;2.19;94.12;103210.44;6072075;28;20044;-75
2022/01/13 07:36:19;;;;;;;66.25;17.10;;;;;;;2.22;94.45;103205.13;6073697;28;20060;-74
2022/01/13 07:39:15;;;;;;;68.93;19.05;;;;;;;2.23;93.92;103209.44;6073775;28;20435;-74
2022/01/13 07:42:10;;;;;;;66.53;17.00;;;;;;;2.26;94.50;103206.78;6072445;28;20041;-73
2022/01/13 07:45:06;;;;;;;68.93;18.17;;;;;;;2.25;94.04;103207.69;6070893;28;20132;-74
2022/01/13 07:48:01;;;;;;;62.25;17.60;;;;;;;2.26;95.22;103204.16;6073942;28;20037;-74
2022/01/13 07:50:56;;;;;;;65.93;17.20;;;;;;;2.35;94.30;103209.22;6072957;28;20046;-73
2022/01/13 07:53:51;;;;;;;62.83;17.83;;;;;;;2.34;94.40;103207.47;6073538;28;20033;-74
2022/01/13 07:56:47;;;;;;;66.77;18.33;;;;;;;2.34;94.18;103215.34;6069632;28;20036;-74
2022/01/13 07:59:42;;;;;;;71.60;17.97;;;;;;;2.34;94.73;103223.19;6068791;28;20284;-73
2022/01/13 08:02:38;;;;;;;75.97;17.67;;;;;;;2.34;94.09;103217.94;6071940;28;20052;-73
2022/01/13 08:05:34;;;;;;;63.45;18.35;;;;;;;2.36;94.12;103218.78;6070961;28;20029;-72
2022/01/13 08:08:29;;;;;;;74.80;19.67;;;;;;;2.36;93.97;103226.63;6068415;28;20080;-73
2022/01/13 08:11:24;;;;;;;66.63;17.70;;;;;;;2.38;94.28;103217.00;6062512;28;20033;-73
2022/01/13 08:14:20;;;;;;;72.40;17.53;;;;;;;2.37;94.11;103217.88;6072317;28;20116;-73
2022/01/13 08:19:45;;;;;;;67.75;18.10;;;;;;;2.39;94.39;103216.09;6074618;28;20049;-73
2022/01/13 08:20:35;;;;;;;73.43;18.30;;;;;;;2.42;94.31;103215.16;6070025;28;20080;-73
2022/01/13 08:23:30;;;;;;;64.43;17.20;;;;;;;2.48;94.62;103229.88;6066191;28;20136;-73
2022/01/13 08:26:27;;;;;;;64.93;16.77;;;;;;;2.49;94.17;103224.63;6066668;28;20487;-73
2022/01/13 08:29:22;;;;;;;64.90;16.63;;;;;;;2.49;94.17;103231.63;6070429;28;20368;-73
2022/01/13 08:32:18;;;;;;;60.10;18.50;;;;;;;2.47;94.27;103238.66;6068007;28;20025;-73
2022/01/13 08:35:14;;;;;;;73.22;17.60;;;;;;;2.54;94.23;103240.22;6072047;28;20385;-73
2022/01/13 08:38:16;;;;;;;70.15;17.00;;;;;;;2.50;94.07;103236.81;6072395;28;20120;-73
2022/01/13 08:41:11;;;;;;;67.60;17.70;;;;;;;2.45;94.50;103246.53;6064237;28;20407;-72
2022/01/13 08:44:07;;;;;;;61.33;15.17;;;;;;;2.53;93.86;103251.63;6070580;28;20042;-73
2022/01/13 08:47:02;;;;;;;78.82;20.30;;;;;;;2.48;93.73;103225.50;6063360;28;20036;-74
2022/01/13 08:49:58;;;;;;;69.75;18.20;;;;;;;2.56;93.83;103233.19;6071889;28;20025;-74
2022/01/13 08:52:53;;;;;;;68.38;17.98;;;;;;;2.53;93.87;103228.06;6072468;28;20036;-74
2022/01/13 08:55:51;;;;;;;84.93;19.70;;;;;;;2.55;93.96;103236.72;6071175;28;20029;-74
2022/01/13 08:58:47;;;;;;;72.30;17.52;;;;;;;2.56;93.40;103231.44;6072606;28;20021;-74
2022/01/13 09:01:42;;;;;;;76.75;18.35;;;;;;;2.57;93.67;103240.16;6070862;28;20036;-73
2022/01/13 09:04:37;;;;;;;76.77;19.17;;;;;;;2.62;94.20;103235.69;6067844;28;20041;-73
2022/01/13 09:07:32;;;;;;;62.93;17.37;;;;;;;2.59;93.06;103236.63;6069313;28;20029;-73
2022/01/13 09:10:28;;;;;;;66.07;17.17;;;;;;;2.67;94.19;103233.84;6060151;28;20069;-75
2022/01/13 09:13:23;;;;;;;67.30;18.27;;;;;;;2.68;93.73;103238.19;6067000;28;20033;-75
2022/01/13 09:16:19;;;;;;;54.05;16.83;;;;;;;2.63;93.38;103246.16;6066122;28;20276;-75
2022/01/13 09:19:14;;;;;;;65.90;16.97;;;;;;;2.63;94.09;103246.16;6065106;28;20041;-74
2022/01/13 09:22:09;;;;;;;64.65;16.52;;;;;;;2.72;93.67;103251.16;6070970;28;20128;-75
2022/01/13 09:25:10;;;;;;;55.47;17.13;;;;;;;2.71;93.28;103243.38;6070889;28;20045;-74
2022/01/13 09:28:07;;;;;;;61.10;15.98;;;;;;;2.69;94.09;103256.47;6070773;28;20083;-75
2022/01/13 09:31:03;;;;;;;55.50;16.33;;;;;;;2.68;93.40;103251.28;6070984;28;20038;-74
2022/01/13 09:34:01;;;;;;;58.88;16.70;;;;;;;2.69;93.91;103248.63;6065787;28;20042;-75
2022/01/13 09:36:56;;;;;;;58.28;16.60;;;;;;;2.67;94.13;103241.69;6064427;28;20036;-75
2022/01/13 09:39:52;;;;;;;60.17;15.50;;;;;;;2.69;93.32;103238.13;6061189;28;20061;-75
2022/01/13 09:42:48;;;;;;;66.63;16.27;;;;;;;2.69;93.72;103239.91;6061271;28;20037;-74
2022/01/13 09:45:43;;;;;;;62.60;16.20;;;;;;;2.76;93.68;103231.88;6068950;28;20283;-75
2022/01/13 09:48:40;;;;;;;61.15;16.73;;;;;;;2.72;93.09;103222.34;6072323;28;20121;-74
2022/01/13 09:51:37;;;;;;;57.78;15.00;;;;;;;2.76;93.15;103231.03;6074493;28;20041;-74
2022/01/13 09:54:32;;;;;;;55.67;15.10;;;;;;;2.81;93.57;103232.66;6076251;28;20033;-75
2022/01/13 09:57:27;;;;;;;48.73;14.27;;;;;;;2.80;93.99;103230.06;6076338;28;20087;-74
2022/01/13 10:00:25;;;;;;;63.83;17.07;;;;;;;2.89;93.61;103229.84;6074054;28;20396;-74
2022/01/13 10:03:25;;;;;;;51.15;14.00;;;;;;;2.85;93.17;103236.06;6074193;28;20105;-75
2022/01/13 10:06:21;;;;;;;56.30;15.60;;;;;;;2.96;93.79;103239.31;6065642;28;20492;-75
2022/01/13 10:09:16;;;;;;;47.67;14.57;;;;;;;3.07;93.05;103241.69;6074235;28;20041;-75
2022/01/13 10:12:11;;;;;;;46.17;13.83;;;;;;;3.16;93.03;103241.44;6064055;28;20388;-75
2022/01/13 10:18:44;;;;;;;49.65;13.85;;;;;;;3.15;92.36;103250.22;6073150;28;20268;-75
2022/01/13 10:21:54;;;;;;;48.63;14.05;;;;;;;3.14;91.90;103238.00;6069022;28;20591;-75
2022/01/13 10:24:52;;;;;;;53.58;14.65;;;;;;;3.24;92.41;103242.97;6072731;28;20038;-74
2022/01/13 10:27:47;;;;;;;47.92;14.25;;;;;;;3.24;92.09;103242.13;6074003;28;20033;-75
2022/01/13 10:30:44;;;;;;;52.60;13.87;;;;;;;3.16;91.86;103237.06;6072533;28;20088;-75
2022/01/13 10:33:40;;;;;;;46.65;12.70;;;;;;;3.18;92.52;103232.63;6074463;28;20072;-75
2022/01/13 10:36:35;;;;;;;54.20;14.50;;;;;;;3.27;92.05;103234.19;6074965;28;20587;-75
2022/01/13 10:39:51;;;;;;;51.60;14.27;;;;;;;3.25;91.80;103230.75;6073726;28;20113;-74
2022/01/13 10:45:55;;;;;;;44.67;13.35;;;;;;;3.43;91.67;103218.03;6079555;28;20547;-75
2022/01/13 10:49:07;;;;;;;46.83;13.77;;;;;;;3.49;90.67;103214.38;6074586;28;20033;-75
2022/01/13 10:52:26;;;;;;;46.95;12.30;;;;;;;3.65;91.42;103205.22;6073279;28;20535;-75
2022/01/13 10:55:23;;;;;;;48.20;12.70;;;;;;;3.67;91.16;103198.16;6067452;28;20029;-75
2022/01/13 10:58:24;;;;;;;46.85;13.98;;;;;;;3.71;90.72;103191.09;6071096;28;20037;-75
2022/01/13 11:01:19;;;;;;;38.70;12.18;;;;;;;3.79;90.39;103194.34;6063946;28;20037;-75
2022/01/13 11:04:16;;;;;;;44.38;12.38;;;;;;;3.82;90.17;103205.66;6072330;28;20167;-76
2022/01/13 11:07:38;;;;;;;37.83;11.93;;;;;;;3.86;90.47;103193.31;6074989;28;20045;-75
2022/01/13 11:10:34;;;;;;;47.35;11.68;;;;;;;3.92;89.50;103198.38;6054884;28;20045;-75
2022/01/13 11:13:35;;;;;;;39.35;12.23;;;;;;;4.00;89.29;103172.75;6074252;28;20039;-76
2022/01/13 11:16:30;;;;;;;35.97;11.40;;;;;;;4.04;89.59;103177.91;6062650;28;20108;-76
2022/01/13 11:19:26;;;;;;;33.50;10.20;;;;;;;4.06;89.80;103175.22;6070224;28;20387;-76
2022/01/13 11:22:21;;;;;;;49.80;12.03;;;;;;;4.12;89.24;103172.44;6072045;28;20385;-76
2022/01/13 11:25:20;;;;;;;33.72;11.35;;;;;;;4.14;88.77;103160.09;6071273;28;20045;-75
2022/01/13 11:28:16;;;;;;;37.47;11.98;;;;;;;4.20;88.32;103168.69;6062814;28;20147;-76
2022/01/13 11:31:11;;;;;;;49.75;12.35;;;;;;;4.21;88.71;103161.66;6062787;28;20468;-75
2022/01/13 11:34:07;;;;;;;43.88;12.93;;;;;;;4.13;89.00;103147.91;6073289;28;20069;-75
2022/01/13 11:37:03;;;;;;;45.42;14.18;;;;;;;4.10;88.33;103145.38;6072051;28;20049;-76
2022/01/13 11:39:58;;;;;;;50.50;14.43;;;;;;;4.10;89.29;103145.38;6073437;28;20030;-75
2022/01/13 11:42:54;;;;;;;39.53;11.32;;;;;;;3.98;88.80;103145.69;6067131;28;20041;-76
2022/01/13 11:45:50;;;;;;;48.33;13.48;;;;;;;3.88;88.81;103133.75;6070224;28;20030;-75
2022/01/13 11:49:04;;;;;;;42.05;12.35;;;;;;;3.93;90.23;103137.09;6072245;28;20044;-75
2022/01/13 11:52:13;;;;;;;40.90;11.80;;;;;;;4.13;89.74;103129.53;6068566;28;20040;-74
2022/01/13 11:55:21;;;;;;;38.38;11.60;;;;;;;4.22;88.74;103129.22;6074430;28;20036;-75
2022/01/13 11:58:21;;;;;;;40.63;11.45;;;;;;;4.22;88.88;103119.59;6074246;28;20061;-75
2022/01/13 12:01:20;;;;;;;39.33;11.35;;;;;;;4.30;89.46;103116.72;6070410;28;20083;-75
2022/01/13 12:04:23;;;;;;;40.30;12.50;;;;;;;4.56;88.46;103127.31;6073434;28;20383;-73
2022/01/13 12:07:38;;;;;;;31.63;9.70;;;;;;;4.77;87.62;103108.22;6064093;28;20116;-74
2022/01/13 12:10:37;;;;;;;30.60;10.25;;;;;;;4.79;86.75;103116.91;6073265;28;20084;-75
2022/01/13 12:13:43;;;;;;;31.88;10.82;;;;;;;4.84;86.99;103108.03;6074380;28;20428;-75
2022/01/13 12:16:59;;;;;;;33.03;9.60;;;;;;;4.91;87.08;103102.50;6074405;28;20052;-75
2022/01/13 12:20:02;;;;;;;29.83;10.15;;;;;;;5.00;86.09;103102.19;6073408;28;20385;-75
2022/01/13 12:23:04;;;;;;;29.05;9.20;;;;;;;4.98;86.25;103108.41;6073907;28;20041;-75
2022/01/13 12:26:00;;;;;;;38.20;10.85;;;;;;;4.89;86.18;103101.72;6073869;28;20049;-75
2022/01/13 12:29:17;;;;;;;29.15;9.45;;;;;;;4.81;85.32;103104.56;6073055;28;20105;-75
2022/01/13 12:32:16;;;;;;;34.70;10.88;;;;;;;4.75;86.34;103094.28;6072518;28;20044;-75
2022/01/13 12:35:29;;;;;;;29.42;9.65;;;;;;;4.72;85.79;103091.75;6069421;28;20037;-74
2022/01/13 12:38:27;;;;;;;30.20;10.73;;;;;;;4.64;86.63;103085.88;6064464;28;20854;-74
2022/01/13 12:41:25;;;;;;;38.15;10.77;;;;;;;4.82;86.67;103079.16;6057257;28;20061;-74
2022/01/13 12:45:27;;;;;;;38.80;10.65;;;;;;;4.94;85.58;103081.38;6059082;28;20037;-74
2022/01/13 12:47:36;;;;;;;40.03;12.07;;;;;;;5.06;85.60;103085.34;6072259;28;20424;-74
2022/01/13 12:50:41;;;;;;;38.38;11.73;;;;;;;5.15;84.38;103072.75;6062855;28;20084;-74
2022/01/13 12:53:37;;;;;;;40.15;11.02;;;;;;;5.13;85.08;103068.47;6067914;28;20493;-74
2022/01/13 12:56:32;;;;;;;35.80;9.60;;;;;;;5.25;85.48;103057.50;6061608;28;20045;-76
2022/01/13 12:59:27;;;;;;;33.37;11.27;;;;;;;5.49;85.27;103063.69;6068612;28;20041;-77
2022/01/13 13:02:23;;;;;;;34.10;10.27;;;;;;;5.46;83.97;103054.13;6063205;28;20025;-76
2022/01/13 13:05:31;;;;;;;37.50;10.80;;;;;;;5.39;83.86;103055.25;6068469;28;20041;-76
2022/01/13 13:08:27;;;;;;;33.15;10.25;;;;;;;5.46;84.24;103056.75;6072334;28;20310;-76
2022/01/13 13:11:29;;;;;;;31.55;10.85;;;;;;;5.33;84.01;103044.94;6072134;28;20029;-74
2022/01/13 13:15:39;;;;;;;33.42;11.18;;;;;;;5.22;84.40;103047.94;6072339;28;20033;-76
2022/01/13 13:17:55;;;;;;;36.88;11.80;;;;;;;5.22;84.81;103047.06;6070413;28;20133;-75
2022/01/13 13:20:50;;;;;;;32.95;10.98;;;;;;;5.06;85.53;103051.16;6071679;28;20055;-76
2022/01/13 13:23:46;;;;;;;27.48;10.05;;;;;;;4.97;85.39;103047.09;6077559;28;20030;-76
2022/01/13 13:26:44;;;;;;;34.53;10.15;;;;;;;5.00;85.53;103052.22;6069427;28;20047;-76
2022/01/13 13:29:39;;;;;;;44.42;14.32;;;;;;;4.90;86.16;103034.19;6077420;28;20131;-77
2022/01/13 13:32:35;;;;;;;36.03;9.90;;;;;;;4.82;86.27;103040.59;6077031;28;20431;-73
2022/01/13 13:35:30;;;;;;;34.13;10.67;;;;;;;4.73;86.40;103040.88;6064806;28;20030;-76
2022/01/13 13:38:25;;;;;;;41.22;12.07;;;;;;;4.61;86.83;103046.56;6063076;28;20102;-76
2022/01/13 13:41:25;;;;;;;33.97;11.30;;;;;;;4.57;87.15;103039.69;6072665;28;20033;-74
2022/01/13 13:44:22;;;;;;;34.53;12.35;;;;;;;4.61;86.75;103037.81;6076815;28;20056;-76
2022/01/13 13:47:19;;;;;;;36.70;10.88;;;;;;;4.55;87.33;103028.38;6062779;28;20033;-75
2022/01/13 13:50:15;;;;;;;33.85;10.05;;;;;;;4.53;87.29;103019.69;6067698;28;20241;-76
2022/01/13 13:53:16;;;;;;;32.10;11.20;;;;;;;4.55;87.21;103011.75;6070166;28;20061;-76
2022/01/13 13:56:11;;;;;;;38.80;10.82;;;;;;;4.45;87.47;103008.56;6081248;28;20046;-76